Time;durP1;ratioP1;P1;durP2;ratioP2;P2;SDS_P1;SDS_P2;PMS_P1;PMS_P2;Temp;Humidity;BMP_temperature;BMP_pressure;BME280_temperature;BME280_humidity;BME280_pressure;Samples;Min_cycle;Max_cycle;Signal;HPM_P1;HPM_P2
2023/01/04 00:01:04;;;;;;;1.77;0.73;;;15.40;78.10;;;;;;6245476;23;19899;-71
2023/01/04 00:03:33;;;;;;;4.00;0.82;;;;;;;;;;6244870;23;20012;-71
2023/01/04 00:06:00;;;;;;;1.42;0.63;;;15.40;75.50;;;;;;6245163;23;20000;-71
2023/01/04 00:08:27;;;;;;;1.10;0.52;;;15.40;76.60;;;;;;6245272;23;20355;-71
2023/01/04 00:10:53;;;;;;;1.33;0.85;;;;;;;;;;6218034;23;20003;-71
2023/01/04 00:13:19;;;;;;;3.58;0.70;;;;;;;;;;6254700;23;20055;-71
2023/01/04 00:15:45;;;;;;;2.55;0.93;;;;;;;;;;6255136;23;20066;-76
2023/01/04 00:18:13;;;;;;;3.17;0.65;;;;;;;;;;6255401;23;20001;-76
2023/01/04 00:20:39;;;;;;;2.83;0.50;;;;;;;;;;6245189;23;20075;-76
2023/01/04 00:23:04;;;;;;;2.28;0.60;;;;;;;;;;6254749;23;20046;-76
2023/01/04 00:25:30;;;;;;;2.22;0.50;;;;;;;;;;6254979;23;19996;-76
2023/01/04 00:27:56;;;;;;;0.57;0.43;;;;;;;;;;6255046;23;20007;-75
2023/01/04 00:30:22;;;;;;;1.20;0.60;;;;;;;;;;6245167;23;20003;-76
2023/01/04 00:32:48;;;;;;;4.95;0.88;;;;;;;;;;6255037;23;20000;-71
2023/01/04 00:35:14;;;;;;;1.05;0.40;;;;;;;;;;6244713;23;20067;-71
2023/01/04 00:37:40;;;;;;;2.50;0.80;;;;;;;;;;6254966;23;20000;-71
2023/01/04 00:40:06;;;;;;;0.95;0.70;;;;;;;;;;6254898;23;20049;-71
2023/01/04 00:42:33;;;;;;;1.98;0.65;;;;;;;;;;6254779;23;20004;-71
2023/01/04 00:44:59;;;;;;;1.40;0.73;;;;;;;;;;6254899;23;19996;-70
2023/01/04 00:47:25;;;;;;;1.75;0.57;;;;;;;;;;6255011;23;20003;-71
2023/01/04 00:49:50;;;;;;;1.10;0.60;;;;;;;;;;6244975;23;19996;-71
2023/01/04 00:52:16;;;;;;;1.25;0.57;;;;;;;;;;6254978;23;20431;-76
2023/01/04 00:54:42;;;;;;;3.33;0.65;;;;;;;;;;6255006;23;20031;-75
2023/01/04 00:57:08;;;;;;;0.60;0.60;;;;;;;;;;6254764;23;20424;-76
2023/01/04 00:59:34;;;;;;;1.35;0.50;;;;;;;;;;6244636;23;20067;-75
2023/01/04 01:02:00;;;;;;;2.58;0.68;;;;;;;;;;6254390;23;20008;-76
2023/01/04 01:04:26;;;;;;;0.98;0.57;;;;;;;;;;6254734;23;20424;-76
2023/01/04 01:06:52;;;;;;;0.60;0.50;;;;;;;;;;6254687;23;20008;-76
2023/01/04 01:09:21;;;;;;;1.08;0.70;;;;;;;;;;6254716;23;20003;-70
2023/01/04 01:11:47;;;;;;;0.80;0.60;;;;;;;;;;6245000;23;20078;-71
2023/01/04 01:14:16;;;;;;;2.30;0.63;;;15.30;78.50;;;;;;6244760;23;20370;-71
2023/01/04 01:16:42;;;;;;;0.80;0.50;;;;;;;;;;6254718;23;19996;-71
2023/01/04 01:19:08;;;;;;;0.50;0.30;;;;;;;;;;6254519;23;20003;-71
2023/01/04 01:21:34;;;;;;;0.60;0.43;;;;;;;;;;6254607;23;20004;-71
2023/01/04 01:24:00;;;;;;;0.40;0.32;;;;;;;;;;6254611;23;20000;-71
2023/01/04 01:26:26;;;;;;;0.77;0.40;;;;;;;;;;6256441;23;20053;-71
2023/01/04 01:28:52;;;;;;;0.82;0.43;;;;;;;;;;6256792;23;20324;-71
2023/01/04 01:31:21;;;;;;;1.00;0.32;;;15.30;78.70;;;;;;6256598;23;20008;-70
2023/01/04 01:33:48;;;;;;;0.52;0.47;;;15.30;78.50;;;;;;6256680;23;20113;-71
2023/01/04 01:36:16;;;;;;;1.45;0.50;;;15.30;78.80;;;;;;6246212;23;20091;-71
2023/01/04 01:38:43;;;;;;;2.17;0.50;;;15.30;75.80;;;;;;6229676;23;20058;-71
2023/01/04 01:41:24;;;;;;;1.33;0.50;;;15.30;78.90;;;;;;6256435;23;20001;-70
2023/01/04 01:44:19;;;;;;;0.77;0.40;;;15.30;73.70;;;;;;6256504;23;20071;-71
2023/01/04 01:46:50;;;;;;;0.68;0.50;;;15.40;74.10;;;;;;6256637;23;20023;-75
2023/01/04 01:49:24;;;;;;;1.13;0.40;;;15.40;79.30;;;;;;6256535;23;19992;-76
2023/01/04 01:51:51;;;;;;;1.05;0.60;;;15.30;77.00;;;;;;6256636;23;20365;-75
2023/01/04 01:54:21;;;;;;;1.25;0.52;;;15.30;79.30;;;;;;6256493;23;20066;-75
2023/01/04 01:56:50;;;;;;;2.10;0.50;;;15.30;79.20;;;;;;6256641;23;20099;-75
2023/01/04 01:59:17;;;;;;;1.02;0.60;;;15.40;77.20;;;;;;6256562;23;20043;-75
2023/01/04 02:01:43;;;;;;;2.75;0.60;;;;;;;;;;6256141;23;20389;-75
2023/01/04 02:04:09;;;;;;;1.65;0.63;;;;;;;;;;6256476;23;19992;-75
2023/01/04 02:06:40;;;;;;;1.92;0.55;;;15.30;77.70;;;;;;6256425;23;20000;-75
2023/01/04 02:09:08;;;;;;;1.17;0.30;;;15.40;79.30;;;;;;6256564;23;20000;-75
2023/01/04 02:11:34;;;;;;;0.85;0.50;;;;;;;;;;6256405;23;20003;-75
2023/01/04 02:16:55;;;;;;;1.38;0.40;;;15.40;74.50;;;;;;6256475;23;20015;-75
2023/01/04 02:19:43;;;;;;;0.40;0.40;;;15.30;74.20;;;;;;6245950;23;20492;-75
2023/01/04 02:22:45;;;;;;;2.30;0.40;;;15.30;74.50;;;;;;6256213;23;20309;-75
2023/01/04 02:25:41;;;;;;;0.93;0.50;;;15.40;74.10;;;;;;6256223;23;20007;-75
2023/01/04 02:28:38;;;;;;;1.75;0.52;;;15.30;73.90;;;;;;6256203;23;20004;-76
2023/01/04 02:31:41;;;;;;;1.60;0.40;;;15.30;72.20;;;;;;6256356;23;20043;-76
2023/01/04 02:34:07;;;;;;;1.73;0.40;;;;;;;;;;6256182;23;20000;-76
2023/01/04 02:36:39;;;;;;;0.50;0.50;;;15.30;79.80;;;;;;6245409;23;19996;-75
2023/01/04 02:39:44;;;;;;;1.30;0.40;;;15.40;74.80;;;;;;6256056;23;19996;-75
2023/01/04 02:45:45;;;;;;;0.88;0.40;;;15.30;80.00;;;;;;6240504;23;20026;-75
2023/01/04 02:50:57;;;;;;;0.98;0.30;;;15.30;79.70;;;;;;6256086;23;20023;-75
2023/01/04 02:53:23;;;;;;;0.47;0.45;;;;;;;;;;6255969;23;19996;-75
2023/01/04 02:56:07;;;;;;;1.17;0.43;;;15.30;74.90;;;;;;6255808;23;20324;-75
2023/01/04 02:58:41;;;;;;;0.82;0.40;;;15.30;74.90;;;;;;6245665;23;20355;-75
2023/01/04 03:07:39;;;;;;;0.52;0.40;;;15.30;74.70;;;;;;6255950;23;20401;-71
2023/01/04 03:10:20;;;;;;;1.58;0.30;;;15.40;74.10;;;;;;6255834;23;20091;-71
2023/01/04 03:13:01;;;;;;;1.75;0.47;;;15.30;74.30;;;;;;6255715;23;20000;-71
2023/01/04 03:15:32;;;;;;;0.63;0.43;;;15.20;73.60;;;;;;6255726;23;20007;-71
2023/01/04 03:18:20;;;;;;;0.60;0.50;;;15.30;73.70;;;;;;6255780;23;19996;-71
2023/01/04 03:20:48;;;;;;;1.02;0.40;;;15.30;98.40;;;;;;6255753;23;20339;-76
2023/01/04 03:37:35;;;;;;;1.05;0.38;;;15.30;73.40;;;;;;6255749;23;20050;-70
2023/01/04 03:49:21;;;;;;;0.28;0.22;;;15.30;73.10;;;;;;6244850;23;20394;-75
2023/01/04 03:51:50;;;;;;;0.30;0.20;;;15.30;72.90;;;;;;6232817;23;20336;-75
2023/01/04 03:54:32;;;;;;;0.40;0.40;;;15.30;68.50;;;;;;6255699;23;20003;-75
2023/01/04 03:56:58;;;;;;;2.30;0.40;;;15.20;97.90;;;;;;6255439;23;19996;-70
2023/01/04 03:59:25;;;;;;;0.52;0.22;;;;;;;;;;6255306;23;20432;-70
2023/01/04 04:01:51;;;;;;;0.68;0.38;;;15.20;82.70;;;;;;6244851;23;20351;-70
2023/01/04 04:09:45;;;;;;;0.75;0.40;;;;;;;;;;6255199;23;20386;-70
2023/01/04 04:12:11;;;;;;;0.77;0.30;;;15.40;97.70;;;;;;6255163;23;20000;-70
2023/01/04 04:14:37;;;;;;;0.80;0.40;;;15.40;96.30;;;;;;6255133;23;20003;-70
2023/01/04 04:17:03;;;;;;;1.00;0.47;;;;;;;;;;6193031;23;20070;-70
2023/01/04 04:19:28;;;;;;;0.43;0.30;;;;;;;;;;6255077;23;19996;-70
2023/01/04 04:21:54;;;;;;;1.17;0.35;;;;;;;;;;6254830;23;20008;-70
2023/01/04 04:24:25;;;;;;;1.33;0.38;;;15.40;72.50;;;;;;6254969;23;20015;-70
2023/01/04 04:26:55;;;;;;;0.55;0.20;;;15.40;97.90;;;;;;6255024;23;19996;-70
2023/01/04 04:29:22;;;;;;;0.55;0.30;;;15.20;73.10;;;;;;6254945;23;19996;-70
2023/01/04 04:31:48;;;;;;;0.55;0.30;;;;;;;;;;6254940;23;19996;-75
2023/01/04 04:34:14;;;;;;;0.32;0.30;;;;;;;;;;6254998;23;19996;-75
2023/01/04 04:36:40;;;;;;;1.50;0.30;;;;;;;;;;6228306;23;20458;-75
2023/01/04 04:39:06;;;;;;;1.13;0.32;;;;;;;;;;6254823;23;20007;-75
2023/01/04 04:41:40;;;;;;;2.22;0.40;;;;;;;;;;6254811;23;20008;-75
2023/01/04 04:44:16;;;;;;;0.52;0.38;;;15.40;98.00;;;;;;6254979;23;19996;-75
2023/01/04 04:46:42;;;;;;;1.50;0.32;;;15.30;98.00;;;;;;6255021;23;20323;-75
2023/01/04 04:49:09;;;;;;;0.20;0.20;;;15.40;72.90;;;;;;6254923;23;20003;-75
2023/01/04 04:51:35;;;;;;;0.90;0.45;;;;;;;;;;6245045;23;19996;-75
2023/01/04 04:54:01;;;;;;;0.85;0.25;;;;;;;;;;6254885;23;20023;-70
2023/01/04 04:56:27;;;;;;;0.28;0.28;;;;;;;;;;6254794;23;19996;-70
2023/01/04 04:58:53;;;;;;;0.95;0.38;;;;;;;;;;6245248;23;20000;-70
2023/01/04 05:01:19;;;;;;;2.42;0.40;;;15.40;98.10;;;;;;6254568;23;20038;-71
2023/01/04 05:03:44;;;;;;;0.30;0.30;;;15.50;91.40;;;;;;6244497;23;20343;-71
2023/01/04 05:06:10;;;;;;;1.92;0.47;;;;;;;;;;6244604;23;19996;-70
2023/01/04 05:08:36;;;;;;;1.02;0.73;;;;;;;;;;6254930;23;20003;-71
2023/01/04 05:11:10;;;;;;;0.40;0.40;;;15.50;69.30;;;;;;6254906;23;20000;-75
2023/01/04 05:13:37;;;;;;;0.75;0.30;;;;;;;;;;6254884;23;19996;-75
2023/01/04 05:16:03;;;;;;;0.85;0.30;;;15.40;75.00;;;;;;6254726;23;20457;-75
2023/01/04 05:18:30;;;;;;;0.65;0.50;;;;;;;;;;6254841;23;19996;-75
2023/01/04 05:20:56;;;;;;;0.50;0.35;;;;;;;;;;6254840;23;19993;-75
2023/01/04 05:23:21;;;;;;;2.42;0.43;;;15.60;98.20;;;;;;6217638;23;20016;-75
2023/01/04 05:25:58;;;;;;;1.55;0.45;;;15.60;98.20;;;;;;6244827;23;19996;-75
2023/01/04 05:28:25;;;;;;;0.68;0.30;;;15.60;73.10;;;;;;6254705;23;20070;-75
2023/01/04 05:30:52;;;;;;;0.38;0.38;;;15.50;76.80;;;;;;6254631;23;19999;-75
2023/01/04 05:33:23;;;;;;;0.98;0.40;;;15.60;98.20;;;;;;6244424;23;20003;-76
2023/01/04 05:35:50;;;;;;;0.85;0.50;;;15.60;98.10;;;;;;6254726;23;20000;-75
2023/01/04 05:38:17;;;;;;;0.65;0.40;;;15.60;71.50;;;;;;6254659;23;19999;-75
2023/01/04 05:40:43;;;;;;;0.47;0.47;;;15.70;91.20;;;;;;6244757;23;20319;-75
2023/01/04 05:43:09;;;;;;;1.02;0.60;;;;;;;;;;6254536;23;20011;-75
2023/01/04 05:45:35;;;;;;;1.90;1.27;;;;;;;;;;6244472;23;20007;-71
2023/01/04 05:48:01;;;;;;;1.05;1.05;;;15.70;98.00;;;;;;6254625;23;20324;-71
2023/01/04 05:50:27;;;;;;;2.15;1.90;;;15.50;94.80;;;;;;6254591;23;19996;-71
2023/01/04 05:52:53;;;;;;;2.00;1.90;;;;;;;;;;6254585;23;19996;-70
2023/01/04 05:55:19;;;;;;;3.10;2.90;;;15.20;73.00;;;;;;6254388;23;20024;-70
2023/01/04 05:57:45;;;;;;;3.67;3.47;;;;;;;;;;6252198;23;20026;-71
2023/01/04 06:00:11;;;;;;;3.58;3.38;;;15.60;73.90;;;;;;6244576;23;20296;-71
2023/01/04 06:02:38;;;;;;;4.68;4.38;;;15.70;98.30;;;;;;6254115;23;20097;-70
2023/01/04 06:05:04;;;;;;;6.00;5.40;;;;;;;;;;6254606;23;20003;-75
2023/01/04 06:07:30;;;;;;;6.15;5.75;;;15.60;98.30;;;;;;6254565;23;20530;-76
2023/01/04 06:09:56;;;;;;;6.88;6.38;;;15.70;98.20;;;;;;6254679;23;20025;-75
2023/01/04 06:12:21;;;;;;;7.85;7.25;;;15.70;98.30;;;;;;6255459;23;20019;-76
2023/01/04 06:14:47;;;;;;;7.82;7.22;;;15.70;98.40;;;;;;6256437;23;20003;-76
2023/01/04 06:17:13;;;;;;;9.35;8.65;;;;;;;;;;6256350;23;20053;-75
2023/01/04 06:19:39;;;;;;;8.65;7.85;;;15.70;97.10;;;;;;6256264;23;20024;-75
2023/01/04 06:22:05;;;;;;;8.45;7.85;;;;;;;;;;6256376;23;20015;-75
2023/01/04 06:24:32;;;;;;;7.38;6.88;;;;;;;;;;6256343;23;20015;-75
2023/01/04 06:26:58;;;;;;;6.97;6.40;;;;;;;;;;6256234;23;19996;-76
2023/01/04 06:29:25;;;;;;;6.72;6.22;;;15.80;88.70;;;;;;6246456;23;20007;-76
2023/01/04 06:31:51;;;;;;;6.00;5.60;;;15.80;93.30;;;;;;6246335;23;20000;-75
2023/01/04 06:34:16;;;;;;;6.05;5.65;;;;;;;;;;6256427;23;20022;-76
2023/01/04 06:36:43;;;;;;;5.50;5.10;;;;;;;;;;6256222;23;20003;-76
2023/01/04 06:39:09;;;;;;;5.10;4.70;;;15.80;73.50;;;;;;6245923;23;20024;-75
2023/01/04 06:41:35;;;;;;;5.55;5.03;;;15.80;96.10;;;;;;6256235;23;20071;-70
2023/01/04 06:44:01;;;;;;;4.63;4.30;;;15.80;84.90;;;;;;6246176;23;20519;-71
2023/01/04 06:46:26;;;;;;;4.00;3.70;;;15.90;81.40;;;;;;6255984;23;19996;-70
2023/01/04 06:48:52;;;;;;;3.40;3.20;;;;;;;;;;6255976;23;19999;-70
2023/01/04 06:51:19;;;;;;;3.90;3.33;;;16.40;73.90;;;;;;6255915;23;20107;-70
2023/01/04 06:53:45;;;;;;;4.63;3.05;;;15.80;92.30;;;;;;6255840;23;19996;-71
2023/01/04 06:56:11;;;;;;;2.83;2.63;;;15.70;83.30;;;;;;6255842;23;20387;-70
2023/01/04 06:58:37;;;;;;;2.70;2.50;;;;;;;;;;6255852;23;19996;-70
2023/01/04 07:01:03;;;;;;;2.65;2.03;;;;;;;;;;6255836;23;20007;-70
2023/01/04 07:03:29;;;;;;;3.50;1.88;;;;;;;;;;6255514;23;20008;-71
2023/01/04 07:05:55;;;;;;;2.10;1.80;;;;;;;;;;6245874;23;20066;-70
2023/01/04 07:08:21;;;;;;;1.77;1.67;;;;;;;;;;6255821;23;20453;-70
2023/01/04 07:10:47;;;;;;;2.47;1.88;;;;;;;;;;6255639;23;20043;-70
2023/01/04 07:13:13;;;;;;;1.30;1.20;;;;;;;;;;6255707;23;19999;-70
2023/01/04 07:15:39;;;;;;;1.23;1.10;;;;;;;;;;6255605;23;20000;-70
2023/01/04 07:18:05;;;;;;;1.52;1.00;;;;;;;;;;6255665;23;20008;-76
2023/01/04 07:20:30;;;;;;;2.17;1.27;;;;;;;;;;6255796;23;19996;-77
2023/01/04 07:22:56;;;;;;;0.80;0.75;;;;;;;;;;6255627;23;20023;-76
2023/01/04 07:25:22;;;;;;;2.38;1.20;;;;;;;;;;6255585;23;19996;-75
2023/01/04 07:27:52;;;;;;;1.85;0.73;;;15.80;70.20;;;;;;6255702;23;20024;-77
2023/01/04 07:30:18;;;;;;;1.30;0.90;;;;;;;;;;6255702;23;20512;-76
2023/01/04 07:32:44;;;;;;;1.73;0.75;;;;;;;;;;6255802;23;20011;-77
2023/01/04 07:35:10;;;;;;;3.55;0.70;;;;;;;;;;6255763;23;20049;-75
2023/01/04 07:37:36;;;;;;;2.35;0.77;;;;;;;;;;6255685;23;20004;-75
2023/01/04 07:40:03;;;;;;;0.82;0.60;;;;;;;;;;6255750;23;20057;-77
2023/01/04 07:42:29;;;;;;;1.30;0.70;;;;;;;;;;6255716;23;20011;-79
2023/01/04 07:44:55;;;;;;;2.67;0.77;;;;;;;;;;6255601;23;20000;-76
2023/01/04 07:47:21;;;;;;;1.55;0.50;;;;;;;;;;6228993;23;20042;-78
2023/01/04 07:49:48;;;;;;;2.75;0.70;;;;;;;;;;6245335;23;20342;-75
2023/01/04 07:52:14;;;;;;;2.67;0.52;;;;;;;;;;6255297;23;20008;-77
2023/01/04 07:54:40;;;;;;;1.85;0.50;;;15.90;98.10;;;;;;6255555;23;20065;-71
2023/01/04 07:57:06;;;;;;;0.82;0.40;;;;;;;;;;6255323;23;20023;-70
2023/01/04 07:59:32;;;;;;;0.82;0.40;;;15.90;97.90;;;;;;6255164;23;20000;-69
2023/01/04 08:01:57;;;;;;;1.80;0.77;;;15.70;97.90;;;;;;6254846;23;20012;-70
2023/01/04 08:04:24;;;;;;;1.33;0.50;;;15.80;98.00;;;;;;6255352;23;19996;-70
2023/01/04 08:06:50;;;;;;;1.27;0.50;;;15.90;98.00;;;;;;6255136;23;19996;-70
2023/01/04 08:09:16;;;;;;;0.88;0.45;;;;;;;;;;6255200;23;20066;-69
2023/01/04 08:11:42;;;;;;;2.25;0.73;;;;;;;;;;6255187;23;20004;-70
2023/01/04 08:14:09;;;;;;;1.73;0.45;;;;;;;;;;6255215;23;19996;-74
2023/01/04 08:16:37;;;;;;;1.08;0.50;;;15.90;73.80;;;;;;6255134;23;20538;-76
2023/01/04 08:19:10;;;;;;;1.48;0.38;;;15.90;91.20;;;;;;6255110;23;20424;-77
2023/01/04 08:21:36;;;;;;;1.15;0.50;;;16.00;90.40;;;;;;6255074;23;20028;-77
2023/01/04 08:24:02;;;;;;;1.75;0.52;;;15.90;73.00;;;;;;6255033;23;20497;-77
2023/01/04 08:26:28;;;;;;;0.75;0.55;;;16.00;98.30;;;;;;6255028;23;20327;-78
2023/01/04 08:28:55;;;;;;;1.08;0.40;;;16.00;98.10;;;;;;6255027;23;19996;-78
2023/01/04 08:31:23;;;;;;;0.80;0.50;;;16.00;91.10;;;;;;6255044;23;19992;-71
2023/01/04 08:33:50;;;;;;;1.42;0.40;;;16.10;98.10;;;;;;6254717;23;19996;-70
2023/01/04 08:36:24;;;;;;;1.98;0.30;;;16.10;98.10;;;;;;6254647;23;20015;-70
2023/01/04 08:38:52;;;;;;;0.80;0.50;;;16.20;74.10;;;;;;6254666;23;20000;-70
2023/01/04 08:41:18;;;;;;;4.38;0.50;;;16.00;98.10;;;;;;6254741;23;20000;-70
2023/01/04 08:43:44;;;;;;;1.05;0.45;;;16.10;98.20;;;;;;6254912;23;20494;-70
2023/01/04 08:46:12;;;;;;;0.50;0.40;;;19.00;76.20;;;;;;6254716;23;19992;-70
2023/01/04 08:48:38;;;;;;;2.03;0.50;;;;;;;;;;6254844;23;20018;-70
2023/01/04 08:51:08;;;;;;;1.98;0.60;;;16.20;86.50;;;;;;6254769;23;19996;-70
2023/01/04 08:53:34;;;;;;;0.90;0.30;;;16.20;98.40;;;;;;6254907;23;20324;-70
2023/01/04 08:56:00;;;;;;;2.20;0.80;;;16.10;98.40;;;;;;6254712;23;19996;-71
2023/01/04 08:58:30;;;;;;;1.38;0.52;;;16.20;98.40;;;;;;6254949;23;20071;-71
2023/01/04 09:00:59;;;;;;;;;;;16.10;75.30;;;;;;6255466;23;19996;-70
2023/01/04 09:03:25;;;;;;;1.57;0.40;;;16.20;98.20;;;;;;6254700;23;19918;-70
2023/01/04 09:05:51;;;;;;;1.63;0.50;;;16.30;98.40;;;;;;6218262;23;20008;-71
2023/01/04 09:08:17;;;;;;;1.90;0.55;;;;;;;;;;6254800;23;20331;-71
2023/01/04 09:10:43;;;;;;;2.97;0.65;;;;;;;;;;6217986;23;19996;-74
2023/01/04 09:13:09;;;;;;;3.63;0.50;;;;;;;;;;6254739;23;20359;-72
2023/01/04 09:15:35;;;;;;;2.40;0.90;;;16.30;97.00;;;;;;6254864;23;20007;-72
2023/01/04 09:18:02;;;;;;;3.05;0.68;;;;;;;;;;6257031;23;20000;-71
2023/01/04 09:20:28;;;;;;;2.55;0.47;;;16.40;98.30;;;;;;6248615;23;20004;-72
2023/01/04 09:22:57;;;;;;;2.55;0.82;;;16.20;75.40;;;;;;6246498;23;20061;-71
2023/01/04 09:25:23;;;;;;;2.78;0.68;;;16.30;98.90;;;;;;6244935;23;20000;-72
2023/01/04 09:27:50;;;;;;;3.63;1.10;;;;;;;;;;6245069;23;20004;-70
2023/01/04 09:30:16;;;;;;;4.13;1.10;;;;;;;;;;6244572;23;20024;-72
2023/01/04 09:32:42;;;;;;;4.68;0.95;;;;;;;;;;6244806;23;20004;-72
2023/01/04 09:35:09;;;;;;;3.08;0.82;;;16.20;89.60;;;;;;6244565;23;20083;-72
2023/01/04 09:37:35;;;;;;;2.45;0.60;;;16.40;92.70;;;;;;6244575;23;20000;-71
2023/01/04 09:40:01;;;;;;;3.63;0.60;;;16.30;98.60;;;;;;6244318;23;20078;-72
2023/01/04 09:42:39;;;;;;;1.95;0.73;;;16.20;71.40;;;;;;6218113;23;20431;-72
2023/01/04 09:45:25;;;;;;;2.00;0.60;;;16.40;77.00;;;;;;6218933;23;19996;-77
2023/01/04 09:47:57;;;;;;;2.22;0.65;;;16.20;75.20;;;;;;6256168;23;20000;-77
2023/01/04 09:50:32;;;;;;;3.20;1.10;;;16.20;99.00;;;;;;6246751;23;20041;-75
2023/01/04 09:52:59;;;;;;;2.92;0.93;;;;;;;;;;6246386;23;19996;-76
2023/01/04 09:55:32;;;;;;;2.05;0.70;;;16.30;98.30;;;;;;6246656;23;20071;-75
2023/01/04 09:58:34;;;;;;;4.15;1.08;;;16.30;98.90;;;;;;6256749;23;20010;-76
2023/01/04 10:01:17;;;;;;;4.72;0.80;;;16.30;73.20;;;;;;6193257;23;20066;-76
2023/01/04 10:04:15;;;;;;;1.90;0.60;;;16.30;98.90;;;;;;6246188;23;20087;-72
2023/01/04 10:06:41;;;;;;;2.83;0.90;;;;;;;;;;6214485;23;19996;-72
2023/01/04 10:09:11;;;;;;;4.18;1.00;;;16.20;76.30;;;;;;6256360;23;20004;-72
2023/01/04 10:11:47;;;;;;;3.53;0.90;;;16.30;76.80;;;;;;6256530;23;20008;-70
2023/01/04 10:14:32;;;;;;;5.28;0.98;;;16.10;75.00;;;;;;6256388;23;20403;-71
2023/01/04 10:17:01;;;;;;;4.03;0.95;;;18.40;72.90;;;;;;6246540;23;20004;-71
2023/01/04 10:19:30;;;;;;;4.63;0.93;;;16.40;99.40;;;;;;6246374;23;20005;-71
2023/01/04 10:22:08;;;;;;;4.03;1.25;;;16.20;71.70;;;;;;6246080;23;20043;-71
2023/01/04 10:24:42;;;;;;;2.55;0.85;;;16.30;99.40;;;;;;6246521;23;20004;-71
2023/01/04 10:27:32;;;;;;;3.28;0.80;;;16.20;76.40;;;;;;6256331;23;20000;-72
2023/01/04 10:29:58;;;;;;;0.90;0.63;;;;;;;;;;6256815;23;20003;-72
2023/01/04 10:32:24;;;;;;;3.22;0.80;;;;;;;;;;6256519;23;20438;-71
2023/01/04 10:34:52;;;;;;;2.33;0.70;;;16.40;99.40;;;;;;6246191;23;19996;-72
2023/01/04 10:37:33;;;;;;;2.90;0.75;;;16.30;71.60;;;;;;6255896;23;20423;-72
2023/01/04 10:40:00;;;;;;;2.33;1.13;;;16.20;73.40;;;;;;6219114;23;19996;-72
2023/01/04 10:42:50;;;;;;;1.85;0.80;;;16.30;99.50;;;;;;6245985;23;20004;-69
2023/01/04 10:45:19;;;;;;;3.17;0.82;;;16.30;76.80;;;;;;6246283;23;20032;-70
2023/01/04 10:48:11;;;;;;;4.00;1.00;;;16.40;91.80;;;;;;6245606;23;20431;-70
2023/01/04 10:50:52;;;;;;;3.03;0.82;;;16.00;99.80;;;;;;6246028;23;20000;-70
2023/01/04 10:53:22;;;;;;;3.65;0.95;;;16.10;99.70;;;;;;6255970;23;20046;-72
2023/01/04 10:56:01;;;;;;;1.25;0.50;;;16.30;72.00;;;;;;6255987;23;20046;-71
2023/01/04 10:58:40;;;;;;;5.40;0.90;;;16.30;77.20;;;;;;6255364;23;20003;-72
2023/01/04 11:01:19;;;;;;;2.33;0.70;;;16.30;77.50;;;;;;6229160;23;20079;-71
2023/01/04 11:04:12;;;;;;;3.83;1.00;;;16.30;72.20;;;;;;6255641;23;20008;-72
2023/01/04 11:06:45;;;;;;;1.23;0.57;;;16.10;99.70;;;;;;6255780;23;20001;-70
2023/01/04 11:09:24;;;;;;;2.60;0.75;;;16.30;72.10;;;;;;6255680;23;20002;-73
2023/01/04 11:11:51;;;;;;;2.58;0.70;;;16.40;99.70;;;;;;6256045;23;20003;-70
2023/01/04 11:14:17;;;;;;;1.95;0.73;;;;;;;;;;6245429;23;20084;-70
2023/01/04 11:16:48;;;;;;;1.58;0.82;;;16.30;77.10;;;;;;6228935;23;20000;-77
2023/01/04 11:19:15;;;;;;;3.42;0.70;;;;;;;;;;6246336;23;20054;-78
2023/01/04 11:21:59;;;;;;;2.78;0.90;;;16.40;99.60;;;;;;6245954;23;20327;-76
2023/01/04 11:24:30;;;;;;;1.73;0.70;;;16.40;99.70;;;;;;6255995;23;20076;-74
2023/01/04 11:26:56;;;;;;;;;;;16.40;78.30;;;;;;6256453;23;19992;-77
2023/01/04 11:29:39;;;;;;;1.80;0.43;;;16.40;99.70;;;;;;6256078;23;20360;-79
2023/01/04 11:32:19;;;;;;;2.15;0.85;;;16.30;77.00;;;;;;6255928;23;20000;-73
2023/01/04 11:34:55;;;;;;;1.67;0.90;;;16.20;77.00;;;;;;6256667;23;19996;-77
2023/01/04 11:37:26;;;;;;;2.50;0.70;;;16.30;99.10;;;;;;6255691;23;19996;-69
2023/01/04 11:40:15;;;;;;;2.10;0.70;;;16.50;99.80;;;;;;6255612;23;20139;-68
2023/01/04 11:42:45;;;;;;;1.97;0.77;;;16.40;99.90;;;;;;6255476;23;20004;-68
2023/01/04 11:45:21;;;;;;;1.30;0.75;;;16.40;99.90;;;;;;6255582;23;20298;-68
2023/01/04 11:47:56;;;;;;;1.65;0.80;;;16.30;79.10;;;;;;6255400;23;20004;-69
2023/01/04 11:50:37;;;;;;;1.13;0.40;;;16.30;99.90;;;;;;6255540;23;20327;-68
2023/01/04 11:53:28;;;;;;;0.70;0.43;;;16.40;79.20;;;;;;6256517;23;19996;-71
2023/01/04 11:56:12;;;;;;;0.93;0.57;;;16.40;99.90;;;;;;6255584;23;20003;-68
2023/01/04 11:58:38;;;;;;;1.70;0.70;;;;;;;;;;6255458;23;20461;-68
2023/01/04 12:01:04;;;;;;;1.63;0.70;;;16.40;88.80;;;;;;6255393;23;20443;-69
2023/01/04 12:03:39;;;;;;;1.67;0.60;;;16.30;99.90;;;;;;6255095;23;20132;-68
2023/01/04 12:06:35;;;;;;;1.42;0.60;;;16.40;98.10;;;;;;6255113;23;20016;-69
2023/01/04 12:09:02;;;;;;;1.65;0.68;;;;;;;;;;6254751;23;19992;-72
2023/01/04 12:11:41;;;;;;;3.58;0.95;;;16.40;80.40;;;;;;6245225;23;20030;-70
2023/01/04 12:14:28;;;;;;;4.63;0.50;;;15.00;74.60;;;;;;6245327;23;20042;-73
2023/01/04 12:17:38;;;;;;;1.77;0.80;;;16.40;75.40;;;;;;6245846;23;20007;-79
2023/01/04 12:20:10;;;;;;;;;;;16.30;76.10;;;;;;6179100;23;20000;-79
2023/01/04 12:22:40;;;;;;;1.33;0.47;;;16.30;80.50;;;;;;6255437;23;19908;-79
2023/01/04 12:25:33;;;;;;;3.95;0.75;;;16.30;74.70;;;;;;6245049;23;19993;-79
2023/01/04 12:27:59;;;;;;;1.80;0.70;;;;;;;;;;6255249;23;20004;-79
2023/01/04 12:30:45;;;;;;;7.47;0.90;;;16.40;75.50;;;;;;6255375;23;20490;-69
2023/01/04 12:33:29;;;;;;;2.78;0.40;;;16.30;75.20;;;;;;6255377;23;20458;-76
2023/01/04 12:36:03;;;;;;;3.00;0.57;;;16.50;99.90;;;;;;6244774;23;20521;-76
2023/01/04 12:39:13;;;;;;;2.78;0.95;;;15.90;77.80;;;;;;6255042;23;20024;-77
2023/01/04 12:41:39;;;;;;;4.70;0.80;;;;;;;;;;6159521;23;20001;-76
2023/01/04 12:44:35;;;;;;;1.20;0.57;;;16.30;82.30;;;;;;6255060;23;20058;-76
2023/01/04 12:50:14;;;;;;;5.95;0.90;;;15.30;74.90;;;;;;6255098;23;20106;-76
2023/01/04 12:52:42;;;;;;;4.30;0.80;;;16.30;80.10;;;;;;6245265;23;20008;-76
2023/01/04 12:55:43;;;;;;;4.82;0.90;;;16.30;75.20;;;;;;6254975;23;20002;-76
2023/01/04 12:58:35;;;;;;;1.20;0.60;;;16.30;75.50;;;;;;6231124;23;20055;-76
2023/01/04 13:01:03;;;;;;;7.45;0.93;;;;;;;;;;6254831;23;20402;-76
2023/01/04 13:03:29;;;;;;;6.90;1.10;;;;;;;;;;6217486;23;20016;-76
2023/01/04 13:05:59;;;;;;;6.72;0.90;;;16.40;81.40;;;;;;6254828;23;20538;-76
2023/01/04 13:08:26;;;;;;;6.80;1.10;;;;;;;;;;6255014;23;20435;-70
2023/01/04 13:10:55;;;;;;;2.67;0.63;;;16.40;81.10;;;;;;6254911;23;20063;-69
2023/01/04 13:13:33;;;;;;;3.03;0.60;;;16.40;99.90;;;;;;6254951;23;19992;-68
2023/01/04 13:16:16;;;;;;;6.28;0.90;;;16.40;75.50;;;;;;6254844;23;20024;-70
2023/01/04 13:19:01;;;;;;;3.20;0.77;;;16.30;75.50;;;;;;6244707;23;19997;-71
2023/01/04 13:21:28;;;;;;;3.78;0.90;;;;;;;;;;6255904;23;19996;-71
2023/01/04 13:23:57;;;;;;;6.53;1.05;;;16.40;80.40;;;;;;6256918;23;20379;-70
2023/01/04 13:26:41;;;;;;;4.88;0.90;;;16.30;75.50;;;;;;6257045;23;19992;-71
2023/01/04 13:29:24;;;;;;;3.58;1.42;;;16.40;99.90;;;;;;6246720;23;20000;-71
2023/01/04 13:31:50;;;;;;;2.50;0.80;;;;;;;;;;6256887;23;20003;-71
2023/01/04 13:34:39;;;;;;;3.50;1.00;;;16.30;80.80;;;;;;6246606;23;20019;-69
2023/01/04 13:37:11;;;;;;;5.13;0.90;;;16.40;99.90;;;;;;6246870;23;20051;-70
2023/01/04 13:39:43;;;;;;;4.00;1.00;;;16.40;80.70;;;;;;6246843;23;20188;-70
2023/01/04 13:42:29;;;;;;;3.95;1.10;;;16.50;99.90;;;;;;6246387;23;20509;-70
2023/01/04 13:45:14;;;;;;;4.40;1.02;;;16.40;74.40;;;;;;6246582;23;20466;-70
2023/01/04 13:47:41;;;;;;;4.53;1.23;;;16.40;79.20;;;;;;6246878;23;20063;-70
2023/01/04 13:50:46;;;;;;;3.58;1.05;;;16.40;74.20;;;;;;6246339;23;20000;-70
2023/01/04 13:53:20;;;;;;;5.57;1.42;;;16.50;99.90;;;;;;6225501;23;20084;-70
2023/01/04 13:55:53;;;;;;;5.43;1.00;;;16.50;80.60;;;;;;6246540;23;20000;-70
2023/01/04 13:58:22;;;;;;;5.95;1.23;;;16.30;80.40;;;;;;6246799;23;19992;-70
2023/01/04 14:00:54;;;;;;;5.63;1.00;;;16.50;99.90;;;;;;6246735;23;19996;-71
2023/01/04 14:03:31;;;;;;;2.60;0.77;;;16.50;75.40;;;;;;6246037;23;20016;-77
2023/01/04 14:06:21;;;;;;;4.32;1.08;;;16.40;75.40;;;;;;6247083;23;19996;-79
2023/01/04 14:09:03;;;;;;;4.95;1.40;;;16.60;94.80;;;;;;6232387;23;20328;-77
2023/01/04 14:14:25;;;;;;;10.05;1.38;;;16.50;99.90;;;;;;6256872;23;20011;-76
2023/01/04 14:17:05;;;;;;;2.38;0.90;;;16.40;80.30;;;;;;6246364;23;20053;-76
2023/01/04 14:19:31;;;;;;;3.72;0.95;;;;;;;;;;6246747;23;20328;-76
2023/01/04 14:21:58;;;;;;;6.47;1.88;;;;;;;;;;6246664;23;20012;-75
2023/01/04 14:24:31;;;;;;;3.90;1.20;;;16.40;99.90;;;;;;6246186;23;20004;-77
2023/01/04 14:26:57;;;;;;;4.32;0.98;;;;;;;;;;6246188;23;20004;-76
2023/01/04 14:29:30;;;;;;;6.35;1.30;;;16.50;75.20;;;;;;6246515;23;19996;-75
2023/01/04 14:31:56;;;;;;;4.25;1.25;;;16.50;79.50;;;;;;6246170;23;20029;-75
2023/01/04 14:34:23;;;;;;;7.40;1.30;;;;;;;;;;6246454;23;19996;-75
2023/01/04 14:36:49;;;;;;;4.00;1.40;;;;;;;;;;6246606;23;20007;-75
2023/01/04 14:39:25;;;;;;;10.40;1.85;;;16.50;80.40;;;;;;6247616;23;20007;-78